Time;durP1;ratioP1;P1;durP2;ratioP2;P2;SDS_P1;SDS_P2;PMS_P1;PMS_P2;Temp;Humidity;BMP_temperature;BMP_pressure;BME280_temperature;BME280_humidity;BME280_pressure;Samples;Min_cycle;Max_cycle;Signal;HPM_P1;HPM_P2
2023/11/24 00:02:05;;;;;;;1.20;1.10;;;7.00;99.90;;;;;;5102530;28;20637;-77
2023/11/24 00:04:31;;;;;;;0.90;0.70;;;7.00;99.90;;;;;;5101903;28;20626;-77
2023/11/24 00:06:58;;;;;;;0.63;0.40;;;6.90;99.90;;;;;;5100730;28;20639;-77
2023/11/24 00:09:27;;;;;;;0.60;0.60;;;7.00;99.90;;;;;;5101184;28;20231;-77
2023/11/24 00:11:54;;;;;;;0.47;0.47;;;6.90;99.90;;;;;;5101155;28;20213;-77
2023/11/24 00:14:21;;;;;;;0.40;0.40;;;6.90;99.90;;;;;;5101590;28;20198;-77
2023/11/24 00:16:48;;;;;;;0.95;0.50;;;6.90;99.90;;;;;;5101202;28;20655;-77
2023/11/24 00:19:17;;;;;;;0.55;0.40;;;6.80;99.90;;;;;;5100771;28;20659;-77
2023/11/24 00:21:44;;;;;;;0.50;0.50;;;6.90;99.90;;;;;;5102621;28;20203;-76
2023/11/24 00:24:11;;;;;;;1.05;0.80;;;6.90;99.90;;;;;;5101629;28;20561;-77
2023/11/24 00:26:37;;;;;;;0.73;0.52;;;6.90;99.90;;;;;;5102602;27;20273;-77
2023/11/24 00:29:05;;;;;;;0.77;0.57;;;6.80;99.90;;;;;;5103235;28;20226;-77
2023/11/24 00:31:32;;;;;;;0.88;0.47;;;6.80;99.90;;;;;;5104001;28;20283;-77
2023/11/24 00:34:00;;;;;;;0.43;0.40;;;6.90;99.90;;;;;;5105531;27;20221;-77
2023/11/24 00:36:28;;;;;;;0.93;0.70;;;6.90;99.90;;;;;;5104940;27;20206;-77
2023/11/24 00:38:55;;;;;;;0.50;0.40;;;6.90;99.90;;;;;;5104780;27;20197;-77
2023/11/24 00:41:22;;;;;;;0.57;0.50;;;6.80;99.90;;;;;;5104120;27;20194;-77
2023/11/24 00:43:50;;;;;;;0.82;0.82;;;6.80;99.90;;;;;;5106054;27;20194;-78
2023/11/24 00:46:17;;;;;;;1.85;0.98;;;6.80;99.90;;;;;;5104734;27;20293;-78
2023/11/24 00:48:44;;;;;;;1.35;0.80;;;6.80;99.90;;;;;;5104591;27;20255;-77
2023/11/24 00:51:10;;;;;;;0.68;0.47;;;6.80;99.90;;;;;;5106001;27;20288;-77
2023/11/24 00:53:39;;;;;;;1.35;0.50;;;6.80;99.90;;;;;;5104845;28;20201;-77
2023/11/24 00:56:06;;;;;;;0.65;0.40;;;6.90;99.90;;;;;;5103749;27;20216;-77
2023/11/24 00:58:33;;;;;;;1.40;0.88;;;6.90;99.90;;;;;;5105607;27;20194;-77
2023/11/24 01:01:00;;;;;;;0.90;0.70;;;6.80;99.90;;;;;;5104388;27;20284;-77
2023/11/24 01:03:27;;;;;;;0.95;0.80;;;6.80;99.90;;;;;;5104692;27;20194;-77
2023/11/24 01:05:54;;;;;;;6.18;2.67;;;6.80;99.90;;;;;;5105004;27;20288;-77
2023/11/24 01:08:21;;;;;;;3.10;1.30;;;6.90;99.90;;;;;;5103199;27;20228;-77
2023/11/24 01:10:49;;;;;;;0.45;0.40;;;6.90;99.90;;;;;;5104573;27;20230;-77
2023/11/24 01:13:16;;;;;;;0.70;0.70;;;6.90;99.90;;;;;;5104747;27;20198;-77
2023/11/24 01:15:43;;;;;;;1.23;0.80;;;6.80;99.90;;;;;;5103822;27;20210;-77
2023/11/24 01:18:09;;;;;;;0.55;0.55;;;6.80;99.90;;;;;;5103665;28;20225;-77
2023/11/24 01:20:36;;;;;;;1.10;0.43;;;6.90;99.90;;;;;;5104184;27;20567;-77
2023/11/24 01:23:04;;;;;;;1.50;0.57;;;6.90;99.90;;;;;;5103487;28;20197;-77
2023/11/24 01:25:31;;;;;;;0.88;0.50;;;6.90;99.90;;;;;;5103558;27;20659;-77
2023/11/24 01:28:01;;;;;;;0.80;0.73;;;6.80;99.90;;;;;;5104412;28;20205;-77
2023/11/24 01:30:28;;;;;;;0.70;0.70;;;6.90;99.90;;;;;;5103497;27;20236;-77
2023/11/24 01:32:54;;;;;;;0.63;0.63;;;6.90;99.90;;;;;;5102729;28;20309;-77
2023/11/24 01:35:21;;;;;;;1.90;1.17;;;6.80;99.90;;;;;;5103445;27;20194;-77
2023/11/24 01:37:48;;;;;;;0.82;0.70;;;7.00;99.90;;;;;;5104840;27;20201;-77
2023/11/24 01:40:17;;;;;;;0.98;0.98;;;7.00;99.90;;;;;;5103858;27;20218;-77
2023/11/24 01:42:44;;;;;;;1.70;0.85;;;7.00;99.90;;;;;;5103637;27;20204;-77
2023/11/24 01:45:12;;;;;;;0.70;0.63;;;7.00;99.90;;;;;;5105249;27;20202;-77
2023/11/24 01:47:39;;;;;;;1.60;0.85;;;7.00;99.90;;;;;;5104293;27;20194;-77
2023/11/24 01:50:09;;;;;;;0.60;0.60;;;7.00;99.90;;;;;;5102514;27;20218;-77
2023/11/24 01:52:37;;;;;;;0.50;0.45;;;7.00;99.90;;;;;;5103467;27;20336;-77
2023/11/24 01:55:04;;;;;;;0.40;0.40;;;6.90;99.90;;;;;;5102076;28;20236;-77
2023/11/24 01:57:31;;;;;;;1.23;1.13;;;6.90;99.90;;;;;;5104491;27;20284;-77
2023/11/24 01:59:58;;;;;;;0.98;0.88;;;6.80;99.90;;;;;;5101985;28;20242;-77
2023/11/24 02:02:30;;;;;;;1.10;1.05;;;6.80;99.90;;;;;;5101746;28;20198;-77
2023/11/24 02:04:56;;;;;;;1.05;0.95;;;6.80;99.90;;;;;;5099889;27;20205;-77
2023/11/24 02:07:23;;;;;;;1.20;0.95;;;6.80;99.90;;;;;;5101572;27;20197;-77
2023/11/24 02:09:51;;;;;;;0.80;0.80;;;6.70;99.90;;;;;;5102114;28;20309;-77
2023/11/24 02:12:19;;;;;;;1.25;0.63;;;6.80;99.90;;;;;;5102348;27;20202;-77
2023/11/24 02:14:47;;;;;;;0.75;0.75;;;6.80;99.90;;;;;;5101225;27;20231;-77
2023/11/24 02:17:15;;;;;;;1.08;0.90;;;6.70;99.90;;;;;;5101980;27;20213;-77
2023/11/24 02:19:45;;;;;;;0.60;0.60;;;6.70;99.90;;;;;;5101404;27;20259;-78
2023/11/24 02:22:13;;;;;;;0.65;0.60;;;6.70;99.90;;;;;;5100881;27;20206;-77
2023/11/24 02:24:43;;;;;;;1.50;0.80;;;6.80;99.90;;;;;;5101228;27;20576;-77
2023/11/24 02:27:10;;;;;;;0.95;0.70;;;6.70;99.90;;;;;;5101486;27;20281;-77
2023/11/24 02:29:38;;;;;;;0.80;0.70;;;6.70;99.90;;;;;;5099730;27;20313;-77
2023/11/24 02:32:06;;;;;;;1.50;1.08;;;6.80;99.90;;;;;;5101375;27;20639;-77
2023/11/24 02:34:35;;;;;;;1.25;1.08;;;6.70;99.90;;;;;;5102428;27;20210;-77
2023/11/24 02:37:03;;;;;;;1.15;0.60;;;6.80;99.90;;;;;;5101613;27;20658;-77
2023/11/24 02:39:32;;;;;;;0.80;0.50;;;6.80;99.90;;;;;;5101312;28;20202;-77
2023/11/24 02:42:01;;;;;;;1.02;0.80;;;6.70;99.90;;;;;;5099556;27;20225;-77
2023/11/24 02:44:29;;;;;;;0.95;0.80;;;6.70;99.90;;;;;;5101969;27;20563;-77
2023/11/24 02:46:58;;;;;;;0.68;0.65;;;6.70;99.90;;;;;;5100597;27;20206;-77
2023/11/24 02:49:26;;;;;;;0.88;0.60;;;6.70;99.90;;;;;;5096230;28;20562;-77
2023/11/24 02:51:54;;;;;;;0.50;0.38;;;6.70;99.90;;;;;;5098380;27;20193;-77
2023/11/24 02:54:22;;;;;;;1.00;0.90;;;6.70;99.90;;;;;;5097360;28;20190;-77
2023/11/24 02:56:50;;;;;;;0.60;0.60;;;6.70;99.90;;;;;;5098542;27;20200;-77
2023/11/24 02:59:20;;;;;;;0.43;0.43;;;6.70;99.90;;;;;;5098768;27;20297;-78
2023/11/24 03:01:48;;;;;;;0.55;0.52;;;6.70;99.90;;;;;;5098456;28;20198;-78
2023/11/24 03:04:16;;;;;;;0.50;0.43;;;6.80;99.90;;;;;;5102648;27;20528;-78
2023/11/24 03:06:45;;;;;;;0.30;0.30;;;6.80;99.90;;;;;;5099260;27;20207;-78
2023/11/24 03:09:13;;;;;;;0.55;0.43;;;6.80;99.90;;;;;;5098666;28;20259;-78
2023/11/24 03:11:42;;;;;;;1.05;0.40;;;6.80;99.90;;;;;;5098743;28;20210;-78
2023/11/24 03:14:09;;;;;;;0.40;0.40;;;6.70;99.90;;;;;;5098330;28;20955;-78
2023/11/24 03:16:37;;;;;;;0.32;0.32;;;6.70;99.90;;;;;;5101751;27;20201;-78
2023/11/24 03:19:04;;;;;;;1.02;0.82;;;6.80;99.90;;;;;;5098617;28;20918;-78
2023/11/24 03:21:32;;;;;;;0.68;0.68;;;6.80;99.90;;;;;;5099031;28;20208;-78
2023/11/24 03:23:59;;;;;;;0.37;0.37;;;6.60;99.90;;;;;;5098358;28;20284;-78
2023/11/24 03:26:26;;;;;;;0.45;0.45;;;6.80;99.90;;;;;;5097945;28;20624;-78
2023/11/24 03:28:53;;;;;;;0.50;0.50;;;6.70;99.90;;;;;;5097101;28;20197;-78
2023/11/24 03:31:20;;;;;;;0.40;0.30;;;6.70;99.90;;;;;;5097014;28;20271;-78
2023/11/24 03:33:48;;;;;;;0.30;0.30;;;6.70;99.90;;;;;;5097130;28;20198;-78
2023/11/24 03:36:15;;;;;;;0.40;0.30;;;6.70;99.90;;;;;;5097337;28;20342;-78
2023/11/24 03:38:42;;;;;;;0.50;0.50;;;6.70;99.90;;;;;;5097867;28;20205;-78
2023/11/24 03:41:09;;;;;;;0.30;0.30;;;6.70;99.90;;;;;;5097452;28;20225;-78
2023/11/24 03:43:36;;;;;;;0.40;0.40;;;6.70;99.90;;;;;;5096194;28;20242;-78
2023/11/24 03:46:03;;;;;;;0.50;0.50;;;6.80;99.90;;;;;;5097772;28;20839;-79
2023/11/24 03:48:31;;;;;;;0.40;0.30;;;6.80;99.90;;;;;;5095502;28;20565;-78
2023/11/24 03:50:59;;;;;;;0.65;0.50;;;6.80;99.90;;;;;;5096222;28;20252;-78
2023/11/24 03:53:26;;;;;;;0.40;0.35;;;6.80;99.90;;;;;;5098167;28;20206;-79
2023/11/24 03:55:53;;;;;;;0.40;0.40;;;6.80;99.90;;;;;;5097060;28;20300;-77
2023/11/24 03:58:20;;;;;;;0.40;0.40;;;6.80;99.90;;;;;;5095944;28;20191;-77
2023/11/24 04:00:47;;;;;;;0.70;0.55;;;6.80;99.90;;;;;;5097651;28;20752;-78
2023/11/24 04:03:13;;;;;;;1.05;0.70;;;6.80;99.90;;;;;;5099619;28;20293;-78
2023/11/24 04:05:40;;;;;;;0.98;0.30;;;6.70;99.90;;;;;;5101681;27;20300;-78
2023/11/24 04:08:08;;;;;;;0.50;0.30;;;6.70;99.90;;;;;;5100548;27;20205;-77
2023/11/24 04:10:35;;;;;;;0.70;0.40;;;6.70;99.90;;;;;;5100298;27;20557;-77
2023/11/24 04:13:02;;;;;;;0.40;0.35;;;6.70;99.90;;;;;;5102475;27;20210;-79
2023/11/24 04:15:29;;;;;;;0.50;0.50;;;6.70;99.90;;;;;;5099602;27;20198;-78
2023/11/24 04:17:55;;;;;;;0.50;0.30;;;6.70;99.90;;;;;;5099443;28;20202;-77
2023/11/24 04:20:22;;;;;;;0.40;0.40;;;6.60;99.90;;;;;;5099391;27;20212;-78
2023/11/24 04:22:51;;;;;;;0.40;0.40;;;6.60;99.90;;;;;;5101078;28;20206;-78
2023/11/24 04:25:19;;;;;;;0.40;0.20;;;6.60;99.90;;;;;;5101474;27;20205;-78
2023/11/24 04:27:46;;;;;;;0.88;0.88;;;6.60;99.90;;;;;;5101536;27;20195;-77
2023/11/24 04:30:13;;;;;;;0.30;0.22;;;6.60;99.90;;;;;;5099470;28;20222;-78
2023/11/24 04:32:40;;;;;;;0.55;0.50;;;6.60;99.90;;;;;;5101124;27;20198;-78
2023/11/24 04:35:08;;;;;;;0.40;0.40;;;6.60;99.90;;;;;;5099862;28;20210;-77
2023/11/24 04:37:35;;;;;;;0.45;0.30;;;6.60;99.90;;;;;;5101198;28;20217;-78
2023/11/24 04:40:02;;;;;;;0.40;0.30;;;6.60;99.90;;;;;;5101465;28;20199;-77
2023/11/24 04:42:30;;;;;;;0.40;0.30;;;6.60;99.90;;;;;;5099014;27;20195;-77
2023/11/24 04:44:57;;;;;;;0.40;0.40;;;6.60;99.90;;;;;;5099804;27;20194;-77
2023/11/24 04:47:23;;;;;;;0.30;0.30;;;6.70;99.90;;;;;;5101283;27;20715;-77
2023/11/24 04:49:50;;;;;;;0.30;0.20;;;6.60;99.90;;;;;;5100579;27;20220;-77
2023/11/24 04:52:17;;;;;;;0.52;0.50;;;6.60;99.90;;;;;;5100689;28;20197;-77
2023/11/24 04:54:44;;;;;;;0.60;0.60;;;6.70;99.90;;;;;;5101607;28;20204;-78
2023/11/24 04:57:11;;;;;;;0.40;0.40;;;6.60;99.90;;;;;;5099883;27;20564;-78
2023/11/24 04:59:41;;;;;;;0.40;0.40;;;6.70;99.90;;;;;;5100138;27;20202;-77
2023/11/24 05:02:08;;;;;;;0.40;0.30;;;6.70;99.90;;;;;;5101553;27;20204;-78
2023/11/24 05:04:36;;;;;;;0.70;0.30;;;6.60;99.90;;;;;;5101523;27;20204;-78
2023/11/24 05:07:03;;;;;;;0.60;0.50;;;6.60;99.90;;;;;;5100240;27;20634;-77
2023/11/24 05:09:30;;;;;;;0.70;0.50;;;6.40;99.90;;;;;;5098767;27;20202;-77
2023/11/24 05:11:56;;;;;;;0.80;0.40;;;6.30;99.90;;;;;;5099638;27;20194;-77
2023/11/24 05:14:23;;;;;;;1.60;0.60;;;6.30;99.90;;;;;;5097175;28;20203;-77
2023/11/24 05:16:51;;;;;;;0.43;0.32;;;6.20;99.90;;;;;;5100455;27;20201;-77
2023/11/24 05:19:18;;;;;;;0.70;0.70;;;6.00;99.90;;;;;;5099429;27;20550;-77
2023/11/24 05:21:45;;;;;;;1.88;0.45;;;6.00;99.90;;;;;;5100331;27;20650;-77
2023/11/24 05:24:12;;;;;;;0.80;0.60;;;6.00;99.90;;;;;;5101133;28;20634;-77
2023/11/24 05:26:38;;;;;;;0.85;0.60;;;6.00;99.90;;;;;;5099215;27;20216;-77
2023/11/24 05:29:05;;;;;;;0.70;0.45;;;5.90;99.90;;;;;;5101141;27;20731;-77
2023/11/24 05:31:32;;;;;;;1.85;0.93;;;5.80;99.90;;;;;;5099122;28;20236;-77
2023/11/24 05:34:00;;;;;;;1.13;0.50;;;5.80;99.90;;;;;;5106281;27;20212;-77
2023/11/24 05:36:27;;;;;;;4.20;1.15;;;5.70;99.90;;;;;;5109478;27;20197;-77
2023/11/24 05:38:55;;;;;;;2.70;1.27;;;5.60;99.90;;;;;;5110483;27;20202;-77
2023/11/24 05:41:22;;;;;;;7.53;0.75;;;5.70;99.90;;;;;;5106302;28;20208;-77
2023/11/24 05:43:49;;;;;;;2.97;0.63;;;5.70;99.90;;;;;;5109402;27;20993;-77
2023/11/24 05:46:16;;;;;;;0.85;0.85;;;5.70;99.90;;;;;;5111669;27;20208;-77
2023/11/24 05:48:42;;;;;;;0.80;0.50;;;5.60;99.90;;;;;;5106972;27;20206;-77
2023/11/24 05:51:11;;;;;;;0.60;0.60;;;5.60;99.90;;;;;;5107589;27;20569;-77
2023/11/24 05:53:37;;;;;;;1.45;1.00;;;5.60;99.90;;;;;;5105440;27;20193;-77
2023/11/24 05:56:06;;;;;;;0.40;0.30;;;5.50;99.90;;;;;;5112401;27;20196;-77
2023/11/24 05:58:34;;;;;;;0.63;0.50;;;5.50;99.90;;;;;;5106624;28;20195;-77
2023/11/24 06:01:01;;;;;;;0.80;0.65;;;5.50;99.90;;;;;;5105851;27;20587;-77
2023/11/24 06:03:28;;;;;;;0.52;0.52;;;5.50;99.90;;;;;;5110385;27;20204;-77
2023/11/24 06:05:55;;;;;;;0.85;0.68;;;5.40;99.90;;;;;;5107441;28;20203;-77
2023/11/24 06:08:23;;;;;;;0.70;0.47;;;5.50;99.90;;;;;;5107098;27;20198;-76
2023/11/24 06:10:50;;;;;;;0.68;0.65;;;5.50;99.90;;;;;;5108324;27;20320;-75
2023/11/24 06:13:17;;;;;;;0.98;0.95;;;5.50;99.90;;;;;;5118225;27;20557;-76
2023/11/24 06:15:43;;;;;;;2.50;0.93;;;5.50;99.90;;;;;;5111280;27;20209;-80
2023/11/24 06:18:10;;;;;;;2.42;1.10;;;5.50;99.90;;;;;;5115999;27;20277;-77
2023/11/24 06:20:37;;;;;;;2.88;0.68;;;5.50;99.90;;;;;;5110776;27;20570;-77
2023/11/24 06:23:04;;;;;;;0.95;0.95;;;5.40;99.90;;;;;;5112659;27;20613;-75
2023/11/24 06:25:32;;;;;;;1.40;1.30;;;5.40;99.90;;;;;;5107650;27;20199;-75
2023/11/24 06:27:59;;;;;;;1.30;1.20;;;5.40;99.90;;;;;;5105280;27;20193;-76
2023/11/24 06:30:26;;;;;;;1.13;0.85;;;5.40;99.90;;;;;;5104856;28;20225;-77
2023/11/24 06:32:53;;;;;;;0.55;0.55;;;5.50;99.90;;;;;;5102530;27;20289;-78
2023/11/24 06:35:20;;;;;;;1.88;1.48;;;5.50;99.90;;;;;;5099255;27;20280;-75
2023/11/24 06:37:47;;;;;;;1.00;0.73;;;5.50;99.90;;;;;;5104992;27;20202;-76
2023/11/24 06:40:14;;;;;;;0.90;0.90;;;5.50;99.90;;;;;;5104012;28;20212;-76
2023/11/24 06:42:42;;;;;;;0.75;0.63;;;5.60;99.90;;;;;;5105609;27;20202;-76
2023/11/24 06:45:12;;;;;;;2.75;1.10;;;5.50;99.90;;;;;;5108746;27;20194;-77
2023/11/24 06:47:39;;;;;;;3.42;1.35;;;5.60;99.90;;;;;;5104290;27;20247;-77
2023/11/24 06:50:08;;;;;;;0.82;0.82;;;5.60;99.90;;;;;;5104878;27;20459;-77
2023/11/24 06:52:35;;;;;;;1.75;1.40;;;5.60;99.90;;;;;;5103750;28;20283;-77
2023/11/24 06:55:02;;;;;;;0.40;0.30;;;5.60;99.90;;;;;;5104771;27;20209;-77
2023/11/24 06:57:29;;;;;;;1.38;0.80;;;5.60;99.90;;;;;;5104752;28;20202;-78
2023/11/24 06:59:57;;;;;;;0.75;0.55;;;5.60;99.90;;;;;;5097991;28;20228;-77
2023/11/24 07:02:23;;;;;;;1.85;0.63;;;5.60;99.90;;;;;;5106832;27;20200;-77
2023/11/24 07:04:50;;;;;;;1.95;1.05;;;5.70;99.90;;;;;;5105712;28;20204;-76
2023/11/24 07:07:17;;;;;;;1.20;1.10;;;5.60;99.90;;;;;;5099115;28;20207;-76
2023/11/24 07:09:44;;;;;;;1.17;1.08;;;5.60;99.90;;;;;;5104307;28;20212;-76
2023/11/24 07:12:12;;;;;;;2.80;1.17;;;5.60;99.90;;;;;;5105592;28;20236;-76
2023/11/24 07:14:39;;;;;;;3.08;1.10;;;5.60;99.90;;;;;;5104685;28;20647;-76
2023/11/24 07:17:07;;;;;;;0.95;0.82;;;5.60;99.90;;;;;;5104086;28;20516;-76
2023/11/24 07:19:34;;;;;;;2.38;2.22;;;5.60;99.90;;;;;;5105681;28;20569;-76
2023/11/24 07:22:01;;;;;;;5.45;1.33;;;5.60;99.90;;;;;;5105759;28;20507;-76
2023/11/24 07:24:28;;;;;;;3.50;2.35;;;5.70;99.90;;;;;;5105544;28;20320;-77
2023/11/24 07:26:55;;;;;;;1.15;0.85;;;5.80;99.90;;;;;;5104041;28;20293;-76
2023/11/24 07:29:22;;;;;;;1.33;1.02;;;5.70;99.90;;;;;;5105637;28;20690;-75
2023/11/24 07:31:49;;;;;;;1.40;0.98;;;5.80;99.90;;;;;;5104647;28;20233;-76
2023/11/24 07:34:18;;;;;;;1.02;1.00;;;5.80;99.90;;;;;;5104093;28;20233;-77
2023/11/24 07:36:45;;;;;;;6.07;1.05;;;5.80;99.90;;;;;;5103764;28;20205;-76
2023/11/24 07:39:12;;;;;;;0.73;0.63;;;5.80;99.90;;;;;;5104775;28;20685;-75
2023/11/24 07:41:39;;;;;;;0.70;0.70;;;5.80;99.90;;;;;;5103617;28;20277;-75
2023/11/24 07:44:07;;;;;;;2.45;0.73;;;5.90;99.90;;;;;;5104959;28;20294;-75
2023/11/24 07:46:34;;;;;;;0.95;0.95;;;5.90;99.90;;;;;;5105389;28;20686;-76
2023/11/24 07:49:00;;;;;;;1.02;0.70;;;6.00;99.90;;;;;;5104665;28;20226;-76
2023/11/24 07:51:28;;;;;;;0.50;0.50;;;6.00;99.90;;;;;;5103457;28;20228;-76
2023/11/24 07:53:56;;;;;;;0.80;0.80;;;6.00;99.90;;;;;;5095090;28;20198;-76
2023/11/24 07:56:23;;;;;;;1.75;1.10;;;6.00;99.90;;;;;;5104188;28;20551;-76
2023/11/24 07:58:49;;;;;;;1.20;0.95;;;6.10;99.90;;;;;;5104633;28;20553;-79
2023/11/24 08:01:17;;;;;;;0.85;0.85;;;6.20;99.90;;;;;;5101248;28;20276;-79
2023/11/24 08:03:44;;;;;;;0.80;0.70;;;6.10;99.90;;;;;;5092350;28;20201;-79
2023/11/24 08:06:11;;;;;;;0.98;0.85;;;6.10;99.90;;;;;;5106382;28;20686;-78
2023/11/24 08:08:40;;;;;;;0.73;0.73;;;6.10;99.90;;;;;;5105266;28;20194;-78
2023/11/24 08:11:08;;;;;;;0.90;0.90;;;6.10;99.90;;;;;;5104880;28;20230;-79
2023/11/24 08:13:35;;;;;;;5.00;0.70;;;6.10;99.90;;;;;;5106323;28;20202;-79
2023/11/24 08:16:03;;;;;;;1.05;1.00;;;6.10;99.90;;;;;;5112984;28;20202;-80
2023/11/24 08:18:30;;;;;;;0.65;0.65;;;6.10;99.90;;;;;;5102563;27;20199;-80
2023/11/24 08:20:58;;;;;;;0.68;0.68;;;6.40;99.90;;;;;;5107452;28;20807;-81
2023/11/24 08:23:25;;;;;;;2.65;1.00;;;6.20;99.90;;;;;;5106343;28;20205;-79
2023/11/24 08:25:53;;;;;;;1.35;1.25;;;6.50;99.90;;;;;;5105370;28;20210;-79
2023/11/24 08:28:20;;;;;;;1.92;1.02;;;6.40;99.90;;;;;;5104848;28;20198;-79
2023/11/24 08:30:48;;;;;;;2.53;1.40;;;6.50;99.90;;;;;;5104976;28;20226;-79
2023/11/24 08:33:15;;;;;;;1.73;0.90;;;6.50;99.90;;;;;;5104228;28;20202;-79
2023/11/24 08:35:42;;;;;;;1.50;1.17;;;6.60;99.90;;;;;;5103825;28;20198;-79
2023/11/24 08:38:10;;;;;;;4.32;1.00;;;6.70;99.90;;;;;;5104433;28;20200;-77
2023/11/24 08:40:39;;;;;;;2.05;1.20;;;6.60;99.90;;;;;;5104513;28;20198;-79
2023/11/24 08:43:07;;;;;;;1.08;0.90;;;6.60;99.90;;;;;;5105369;28;20202;-80
2023/11/24 08:45:35;;;;;;;1.02;0.52;;;6.50;99.90;;;;;;5105997;28;20198;-80
2023/11/24 08:48:03;;;;;;;0.98;0.70;;;6.50;99.90;;;;;;5107146;27;20239;-79
2023/11/24 08:50:31;;;;;;;0.90;0.90;;;6.40;99.90;;;;;;5105704;27;20489;-79
2023/11/24 08:52:58;;;;;;;0.70;0.70;;;6.50;99.90;;;;;;5104079;27;20277;-80
2023/11/24 08:55:25;;;;;;;0.88;0.73;;;6.60;99.90;;;;;;5108699;27;20597;-79
2023/11/24 08:57:53;;;;;;;1.35;1.15;;;6.70;99.90;;;;;;5108364;27;20698;-79
2023/11/24 09:00:22;;;;;;;1.50;1.13;;;6.80;99.90;;;;;;5108374;27;20239;-79
2023/11/24 09:02:49;;;;;;;1.48;1.00;;;6.90;99.90;;;;;;5105990;27;20205;-79
2023/11/24 09:05:16;;;;;;;6.25;1.35;;;7.00;99.90;;;;;;5107046;27;20328;-79
2023/11/24 09:07:44;;;;;;;1.58;0.93;;;7.00;99.90;;;;;;5107503;27;20915;-80
2023/11/24 09:10:12;;;;;;;1.00;0.82;;;7.10;99.90;;;;;;5111941;27;20275;-75
2023/11/24 09:12:38;;;;;;;2.80;1.73;;;6.90;99.90;;;;;;5114864;27;20308;-72
2023/11/24 09:15:06;;;;;;;1.15;0.90;;;6.80;99.90;;;;;;5108112;28;20194;-74
2023/11/24 09:17:35;;;;;;;7.95;2.13;;;6.70;99.90;;;;;;5107948;27;20262;-73
2023/11/24 09:20:05;;;;;;;3.08;1.73;;;6.60;99.90;;;;;;5099313;28;20190;-74
2023/11/24 09:22:32;;;;;;;1.85;1.10;;;6.50;99.90;;;;;;5115741;27;20202;-74
2023/11/24 09:25:01;;;;;;;6.75;1.90;;;6.60;99.90;;;;;;5108567;27;20636;-72
2023/11/24 09:27:28;;;;;;;2.13;1.92;;;6.50;99.90;;;;;;5108247;27;20864;-73
2023/11/24 09:29:55;;;;;;;3.10;0.98;;;6.50;99.90;;;;;;5107446;27;20204;-72
2023/11/24 09:32:22;;;;;;;1.33;0.82;;;6.40;99.90;;;;;;5110918;27;20225;-74
2023/11/24 09:34:51;;;;;;;1.20;1.10;;;6.40;99.90;;;;;;5108033;27;20205;-73
2023/11/24 09:37:17;;;;;;;1.30;1.20;;;6.40;99.90;;;;;;5102974;27;20198;-74
2023/11/24 09:39:44;;;;;;;3.42;1.77;;;6.40;99.90;;;;;;5110909;27;20212;-74
2023/11/24 09:42:14;;;;;;;1.55;1.13;;;6.50;99.90;;;;;;5111334;27;20600;-72
2023/11/24 09:44:42;;;;;;;1.38;1.27;;;6.40;99.90;;;;;;5110552;27;20282;-73
2023/11/24 09:47:12;;;;;;;2.90;1.92;;;6.50;99.90;;;;;;5109495;27;20586;-73
2023/11/24 09:49:40;;;;;;;1.30;1.02;;;6.50;99.90;;;;;;5106759;28;20218;-71
2023/11/24 09:52:08;;;;;;;1.35;1.17;;;6.40;99.90;;;;;;5107522;27;20240;-73
2023/11/24 09:54:35;;;;;;;1.40;1.13;;;6.50;99.90;;;;;;5104552;27;20284;-73
2023/11/24 09:57:02;;;;;;;1.25;1.15;;;6.50;99.90;;;;;;5112272;27;20193;-73
2023/11/24 09:59:29;;;;;;;2.35;1.27;;;6.50;99.90;;;;;;5106415;27;20217;-73
2023/11/24 10:01:59;;;;;;;1.50;1.40;;;6.30;99.90;;;;;;5110726;27;20612;-72
2023/11/24 10:04:27;;;;;;;1.20;1.13;;;6.40;99.90;;;;;;5105932;27;20202;-72
2023/11/24 10:06:54;;;;;;;3.33;1.77;;;6.40;99.90;;;;;;5109603;27;20659;-71
2023/11/24 10:09:28;;;;;;;5.95;1.25;;;6.40;99.90;;;;;;5107348;27;20198;-72
2023/11/24 10:11:58;;;;;;;4.30;0.98;;;6.40;99.90;;;;;;5105958;27;20558;-72
2023/11/24 10:14:25;;;;;;;0.82;0.82;;;6.30;99.90;;;;;;5116479;27;20194;-72
2023/11/24 10:16:52;;;;;;;1.63;1.33;;;6.30;99.90;;;;;;5106808;27;20229;-72
2023/11/24 10:19:19;;;;;;;4.88;1.25;;;6.40;99.90;;;;;;5111212;27;20209;-72
2023/11/24 10:21:46;;;;;;;1.33;1.23;;;6.40;99.90;;;;;;5108893;27;20293;-72
2023/11/24 10:24:13;;;;;;;1.58;1.30;;;6.50;99.90;;;;;;5112672;27;20298;-72
2023/11/24 10:26:44;;;;;;;2.60;1.67;;;6.40;99.90;;;;;;5105820;27;20548;-72
2023/11/24 10:29:11;;;;;;;2.10;1.80;;;6.40;99.90;;;;;;5100076;28;20205;-72
2023/11/24 10:31:39;;;;;;;2.05;1.88;;;6.40;99.90;;;;;;5107768;27;20222;-72
2023/11/24 10:34:06;;;;;;;1.17;1.10;;;6.40;99.90;;;;;;5112684;27;20193;-72
2023/11/24 10:36:36;;;;;;;1.42;1.33;;;6.50;99.90;;;;;;5105227;28;20213;-72
2023/11/24 10:39:08;;;;;;;12.02;2.20;;;6.60;99.90;;;;;;5105283;28;20600;-72
2023/11/24 10:41:41;;;;;;;2.70;1.50;;;6.70;99.90;;;;;;5105122;27;20209;-72
2023/11/24 10:44:11;;;;;;;1.38;1.27;;;6.70;99.90;;;;;;5104876;27;20631;-72
2023/11/24 10:46:43;;;;;;;4.75;1.42;;;6.90;99.90;;;;;;5107221;27;20209;-72
2023/11/24 10:49:19;;;;;;;1.38;1.27;;;7.00;99.90;;;;;;5105219;27;20722;-71
2023/11/24 10:51:53;;;;;;;4.80;1.60;;;7.00;99.90;;;;;;5103618;28;20308;-72
2023/11/24 10:54:25;;;;;;;4.45;1.25;;;7.20;99.90;;;;;;5106425;28;20194;-72
2023/11/24 10:56:56;;;;;;;7.53;2.17;;;7.30;99.90;;;;;;5117181;27;20198;-73
2023/11/24 10:59:27;;;;;;;2.38;1.30;;;7.40;99.90;;;;;;5110584;27;20680;-75
2023/11/24 11:01:56;;;;;;;3.40;1.35;;;7.40;99.90;;;;;;5114759;27;20656;-73
2023/11/24 11:04:23;;;;;;;4.30;1.55;;;7.50;99.90;;;;;;5106489;27;20622;-74
2023/11/24 11:06:58;;;;;;;5.97;2.30;;;7.50;99.90;;;;;;5102494;28;20202;-72
2023/11/24 11:09:29;;;;;;;1.48;1.35;;;7.40;99.90;;;;;;5108341;27;20212;-73
2023/11/24 11:12:30;;;;;;;2.13;1.25;;;7.40;99.90;;;;;;5111844;27;20224;-73
2023/11/24 11:14:59;;;;;;;2.42;1.92;;;7.30;99.90;;;;;;5105690;27;20890;-73
2023/11/24 11:17:26;;;;;;;6.88;1.60;;;7.30;99.90;;;;;;5112583;27;20284;-73
2023/11/24 11:20:00;;;;;;;4.13;1.05;;;7.30;99.90;;;;;;5105380;28;20670;-73
2023/11/24 11:22:30;;;;;;;2.97;1.35;;;7.20;99.90;;;;;;5106024;28;20209;-73
2023/11/24 11:25:23;;;;;;;3.20;1.30;;;7.20;99.90;;;;;;5111673;27;20197;-73
2023/11/24 11:27:49;;;;;;;2.25;1.17;;;7.20;99.90;;;;;;5104744;28;20197;-75
2023/11/24 11:30:21;;;;;;;5.00;1.40;;;7.20;99.90;;;;;;5108965;27;20214;-75
2023/11/24 11:33:01;;;;;;;1.65;0.90;;;7.30;99.90;;;;;;5106378;28;20225;-75
2023/11/24 11:35:29;;;;;;;2.35;1.50;;;7.30;99.90;;;;;;5104030;28;20197;-76
2023/11/24 11:37:59;;;;;;;1.50;1.38;;;7.20;99.90;;;;;;5105486;28;20713;-78
2023/11/24 11:40:27;;;;;;;0.80;0.75;;;7.20;99.90;;;;;;5105175;28;20197;-75
2023/11/24 11:42:58;;;;;;;3.80;1.63;;;7.10;99.90;;;;;;5101978;28;20655;-72
2023/11/24 11:45:29;;;;;;;2.30;1.10;;;7.10;99.90;;;;;;5101756;28;20623;-77
2023/11/24 11:47:58;;;;;;;0.93;0.88;;;7.00;99.90;;;;;;5107113;28;20348;-75
2023/11/24 11:50:25;;;;;;;1.15;0.95;;;6.90;99.90;;;;;;5094932;28;20216;-75
2023/11/24 11:52:57;;;;;;;1.38;1.05;;;6.80;99.90;;;;;;5102132;28;20867;-76
2023/11/24 11:55:25;;;;;;;7.38;3.03;;;6.90;99.90;;;;;;5107933;28;20202;-76
2023/11/24 11:57:53;;;;;;;1.70;1.27;;;6.70;99.90;;;;;;5110458;27;20555;-73
2023/11/24 12:00:26;;;;;;;2.83;1.95;;;6.60;99.90;;;;;;5104251;28;20637;-73
2023/11/24 12:02:55;;;;;;;1.30;1.05;;;6.60;99.90;;;;;;5105467;28;20372;-71
2023/11/24 12:05:22;;;;;;;4.70;1.02;;;6.50;99.90;;;;;;5105871;28;20191;-72
2023/11/24 12:07:49;;;;;;;1.10;1.00;;;6.40;99.90;;;;;;5104376;28;20681;-73
2023/11/24 12:10:16;;;;;;;3.22;1.48;;;6.30;99.90;;;;;;5104725;28;20670;-73
2023/11/24 12:12:43;;;;;;;1.42;1.35;;;6.30;99.90;;;;;;5105191;28;20233;-76
2023/11/24 12:15:10;;;;;;;3.15;0.93;;;6.20;99.90;;;;;;5106127;28;20194;-79
2023/11/24 12:17:39;;;;;;;1.23;0.93;;;6.10;99.90;;;;;;5112825;28;20190;-75
2023/11/24 12:20:10;;;;;;;2.30;1.60;;;6.00;99.90;;;;;;5104286;28;20742;-77
2023/11/24 12:22:37;;;;;;;3.10;1.90;;;6.10;99.90;;;;;;5106618;28;20767;-76
2023/11/24 12:25:05;;;;;;;1.48;1.38;;;6.10;99.90;;;;;;5105148;27;20540;-76
2023/11/24 12:27:33;;;;;;;6.55;3.95;;;6.10;99.90;;;;;;5110754;27;20205;-76
2023/11/24 12:30:04;;;;;;;4.00;1.38;;;6.10;99.90;;;;;;5106403;28;20199;-77
2023/11/24 12:32:33;;;;;;;6.75;1.92;;;6.20;99.90;;;;;;5111052;27;20574;-77
2023/11/24 12:35:01;;;;;;;5.78;1.70;;;6.10;99.90;;;;;;5112165;27;20202;-77
2023/11/24 12:37:28;;;;;;;1.33;1.15;;;6.00;99.90;;;;;;5114345;27;20197;-77
2023/11/24 12:39:56;;;;;;;5.28;1.15;;;5.90;99.90;;;;;;5109548;27;20308;-76
2023/11/24 12:42:23;;;;;;;1.00;0.85;;;5.80;99.90;;;;;;5105757;27;20290;-77
2023/11/24 12:44:51;;;;;;;2.30;1.00;;;5.70;99.90;;;;;;5103985;27;20198;-76
2023/11/24 12:47:24;;;;;;;1.08;1.00;;;5.70;99.90;;;;;;5103279;27;20563;-77
2023/11/24 12:50:01;;;;;;;0.77;0.77;;;5.60;99.90;;;;;;5096622;27;20644;-76
2023/11/24 12:52:32;;;;;;;1.10;0.80;;;5.30;99.90;;;;;;5097016;28;20248;-76
2023/11/24 12:54:59;;;;;;;2.15;1.73;;;5.10;99.90;;;;;;5097983;28;20284;-76
2023/11/24 12:57:27;;;;;;;0.40;0.40;;;5.00;99.90;;;;;;5098531;27;20224;-76
2023/11/24 12:59:56;;;;;;;9.70;1.35;;;4.90;99.90;;;;;;5097113;27;20203;-77
2023/11/24 13:02:24;;;;;;;2.65;1.40;;;4.90;99.90;;;;;;5092159;27;20205;-76